Terminal Aerodrome Forecast
Issued by NWS

Home | Current Version | Previous Version | Text Only | Print | Product List | Glossary On
Versions: 1 2 3 4 5 6 7 8 9 10 11 12 13 14
000
FTUS42 TJSJ 251700
TAFJPS
TAF
TJPS 251732Z 2518/2618 14010KT P6SM VCSH FEW030 FEW050
     FM252230 05005KT P6SM FEW025
     FM261500 13012KT P6SM FEW030 SCT060
      AMD NOT SKED TIL 260300=

USA.gov is the U.S. government's official web portal to all federal, state and local government web resources and services.